sensor_id;sensor_type;location;lat;lon;timestamp;pressure;altitude;pressure_sealevel;temperature;humidity
42847;BME280;28495;49.916;14.536;2022-10-17T00:04:40;97667.41;;;14.42;74.33
42847;BME280;28495;49.916;14.536;2022-10-17T00:10:01;97672.53;;;14.33;74.20
42847;BME280;28495;49.916;14.536;2022-10-17T00:15:22;97679.44;;;14.35;74.38
42847;BME280;28495;49.916;14.536;2022-10-17T00:20:43;97671.84;;;14.31;74.31
42847;BME280;28495;49.916;14.536;2022-10-17T00:26:04;97666.69;;;14.50;74.72
42847;BME280;28495;49.916;14.536;2022-10-17T00:31:25;97668.00;;;14.63;74.91
42847;BME280;28495;49.916;14.536;2022-10-17T00:36:46;97669.81;;;14.73;74.85
42847;BME280;28495;49.916;14.536;2022-10-17T00:42:11;97668.16;;;14.72;74.20
42847;BME280;28495;49.916;14.536;2022-10-17T00:47:33;97678.09;;;14.68;74.22
42847;BME280;28495;49.916;14.536;2022-10-17T00:52:57;97677.91;;;14.42;73.81
42847;BME280;28495;49.916;14.536;2022-10-17T00:58:20;97679.59;;;14.33;73.61
42847;BME280;28495;49.916;14.536;2022-10-17T01:03:42;97683.03;;;14.24;73.71
42847;BME280;28495;49.916;14.536;2022-10-17T01:09:03;97674.50;;;14.12;73.58
42847;BME280;28495;49.916;14.536;2022-10-17T01:31:13;97677.00;;;13.94;73.65
42847;BME280;28495;49.916;14.536;2022-10-17T01:37:00;97671.22;;;13.80;73.76
42847;BME280;28495;49.916;14.536;2022-10-17T01:42:28;97678.25;;;13.90;74.33
42847;BME280;28495;49.916;14.536;2022-10-17T01:47:51;97679.50;;;13.85;73.93
42847;BME280;28495;49.916;14.536;2022-10-17T01:53:18;97668.31;;;13.83;74.00
42847;BME280;28495;49.916;14.536;2022-10-17T01:58:53;97668.03;;;13.77;73.92
42847;BME280;28495;49.916;14.536;2022-10-17T02:04:17;97673.28;;;13.86;74.42
42847;BME280;28495;49.916;14.536;2022-10-17T02:09:38;97674.78;;;13.89;74.06
42847;BME280;28495;49.916;14.536;2022-10-17T02:20:30;97684.31;;;13.70;73.81
42847;BME280;28495;49.916;14.536;2022-10-17T02:37:27;97684.69;;;13.46;73.95
42847;BME280;28495;49.916;14.536;2022-10-17T02:42:51;97684.38;;;13.39;74.02
42847;BME280;28495;49.916;14.536;2022-10-17T02:48:21;97682.88;;;13.37;74.08
42847;BME280;28495;49.916;14.536;2022-10-17T02:59:25;97689.03;;;13.26;74.17
42847;BME280;28495;49.916;14.536;2022-10-17T03:04:48;97679.94;;;13.20;74.31
42847;BME280;28495;49.916;14.536;2022-10-17T03:10:09;97676.78;;;13.17;74.30
42847;BME280;28495;49.916;14.536;2022-10-17T03:15:30;97686.53;;;13.15;74.20
42847;BME280;28495;49.916;14.536;2022-10-17T03:20:51;97690.69;;;13.07;74.29
42847;BME280;28495;49.916;14.536;2022-10-17T03:26:12;97690.38;;;13.01;73.97
42847;BME280;28495;49.916;14.536;2022-10-17T03:31:33;97690.19;;;12.92;74.07
42847;BME280;28495;49.916;14.536;2022-10-17T03:36:55;97699.28;;;12.88;74.07
42847;BME280;28495;49.916;14.536;2022-10-17T03:42:17;97705.34;;;12.89;74.46
42847;BME280;28495;49.916;14.536;2022-10-17T03:47:39;97713.31;;;12.87;74.64
42847;BME280;28495;49.916;14.536;2022-10-17T03:52:59;97711.41;;;12.89;74.49
42847;BME280;28495;49.916;14.536;2022-10-17T03:58:20;97720.75;;;12.82;74.32
42847;BME280;28495;49.916;14.536;2022-10-17T04:03:42;97720.56;;;12.74;74.31
42847;BME280;28495;49.916;14.536;2022-10-17T04:09:05;97720.25;;;12.67;74.46
42847;BME280;28495;49.916;14.536;2022-10-17T04:14:35;97727.41;;;12.65;74.27
42847;BME280;28495;49.916;14.536;2022-10-17T04:19:57;97721.59;;;12.61;74.28
42847;BME280;28495;49.916;14.536;2022-10-17T04:25:17;97729.47;;;12.61;74.38
42847;BME280;28495;49.916;14.536;2022-10-17T04:30:39;97730.78;;;12.77;74.82
42847;BME280;28495;49.916;14.536;2022-10-17T04:36:09;97724.63;;;12.88;74.40
42847;BME280;28495;49.916;14.536;2022-10-17T04:41:31;97739.59;;;12.76;74.39
42847;BME280;28495;49.916;14.536;2022-10-17T04:46:51;97726.00;;;12.82;74.49
42847;BME280;28495;49.916;14.536;2022-10-17T04:52:12;97725.84;;;12.84;74.27
42847;BME280;28495;49.916;14.536;2022-10-17T04:57:36;97717.94;;;13.05;74.81
42847;BME280;28495;49.916;14.536;2022-10-17T05:03:05;97718.44;;;12.89;73.93
42847;BME280;28495;49.916;14.536;2022-10-17T05:08:25;97721.47;;;12.94;74.68
42847;BME280;28495;49.916;14.536;2022-10-17T05:13:54;97720.88;;;13.21;75.05
42847;BME280;28495;49.916;14.536;2022-10-17T05:19:16;97733.03;;;13.22;74.76
42847;BME280;28495;49.916;14.536;2022-10-17T05:24:41;97740.72;;;13.14;74.38
42847;BME280;28495;49.916;14.536;2022-10-17T05:30:04;97746.63;;;13.06;74.26
42847;BME280;28495;49.916;14.536;2022-10-17T05:35:27;97751.31;;;13.13;74.54
42847;BME280;28495;49.916;14.536;2022-10-17T05:40:48;97757.25;;;13.15;74.24
42847;BME280;28495;49.916;14.536;2022-10-17T05:46:09;97755.63;;;13.23;74.00
42847;BME280;28495;49.916;14.536;2022-10-17T05:51:34;97757.31;;;13.24;74.31
42847;BME280;28495;49.916;14.536;2022-10-17T05:56:56;97771.25;;;13.35;74.62
42847;BME280;28495;49.916;14.536;2022-10-17T06:02:22;97775.75;;;13.54;74.76
42847;BME280;28495;49.916;14.536;2022-10-17T06:07:42;97786.97;;;13.35;73.78
42847;BME280;28495;49.916;14.536;2022-10-17T06:13:05;97798.09;;;13.27;73.50
42847;BME280;28495;49.916;14.536;2022-10-17T06:18:27;97809.69;;;13.24;73.94
42847;BME280;28495;49.916;14.536;2022-10-17T06:23:47;97817.28;;;13.27;74.30
42847;BME280;28495;49.916;14.536;2022-10-17T06:29:18;97821.63;;;13.38;74.81
42847;BME280;28495;49.916;14.536;2022-10-17T06:34:42;97828.19;;;13.64;75.19
42847;BME280;28495;49.916;14.536;2022-10-17T06:40:04;97836.06;;;13.64;74.80
42847;BME280;28495;49.916;14.536;2022-10-17T06:45:29;97851.06;;;13.62;74.86
42847;BME280;28495;49.916;14.536;2022-10-17T06:51:09;97848.47;;;13.62;74.96
42847;BME280;28495;49.916;14.536;2022-10-17T06:56:42;97852.88;;;13.61;74.91
42847;BME280;28495;49.916;14.536;2022-10-17T07:02:22;97857.19;;;13.72;74.84
42847;BME280;28495;49.916;14.536;2022-10-17T07:07:45;97856.66;;;13.78;74.85
42847;BME280;28495;49.916;14.536;2022-10-17T07:13:09;97861.59;;;13.71;74.68
42847;BME280;28495;49.916;14.536;2022-10-17T07:18:30;97875.66;;;13.70;74.58
42847;BME280;28495;49.916;14.536;2022-10-17T07:23:51;97871.69;;;13.66;74.63
42847;BME280;28495;49.916;14.536;2022-10-17T07:29:13;97877.22;;;13.73;74.87
42847;BME280;28495;49.916;14.536;2022-10-17T07:35:00;97875.03;;;13.88;75.26
42847;BME280;28495;49.916;14.536;2022-10-17T07:40:21;97868.88;;;14.09;75.59
42847;BME280;28495;49.916;14.536;2022-10-17T07:45:41;97877.31;;;14.22;75.30
42847;BME280;28495;49.916;14.536;2022-10-17T07:51:03;97875.00;;;14.39;75.57
42847;BME280;28495;49.916;14.536;2022-10-17T07:56:25;97882.47;;;14.53;75.53
42847;BME280;28495;49.916;14.536;2022-10-17T08:01:46;97884.97;;;14.74;75.72
42847;BME280;28495;49.916;14.536;2022-10-17T08:07:07;97890.06;;;14.86;75.47
42847;BME280;28495;49.916;14.536;2022-10-17T08:12:43;97894.50;;;14.95;75.52
42847;BME280;28495;49.916;14.536;2022-10-17T08:18:04;97896.72;;;15.00;75.37
42847;BME280;28495;49.916;14.536;2022-10-17T08:23:25;97890.03;;;15.15;75.60
42847;BME280;28495;49.916;14.536;2022-10-17T08:28:46;97880.06;;;15.19;75.46
42847;BME280;28495;49.916;14.536;2022-10-17T08:34:07;97881.03;;;15.28;75.44
42847;BME280;28495;49.916;14.536;2022-10-17T08:39:27;97880.72;;;15.41;75.47
42847;BME280;28495;49.916;14.536;2022-10-17T08:45:11;97874.88;;;15.47;75.22
42847;BME280;28495;49.916;14.536;2022-10-17T08:50:42;97872.34;;;15.55;75.18
42847;BME280;28495;49.916;14.536;2022-10-17T08:56:19;97864.44;;;15.65;75.04
42847;BME280;28495;49.916;14.536;2022-10-17T09:07:34;97861.59;;;15.86;74.60
42847;BME280;28495;49.916;14.536;2022-10-17T09:13:23;97866.41;;;15.91;74.56
42847;BME280;28495;49.916;14.536;2022-10-17T09:24:55;97866.59;;;16.07;74.60
42847;BME280;28495;49.916;14.536;2022-10-17T09:30:21;97863.97;;;16.25;74.38
42847;BME280;28495;49.916;14.536;2022-10-17T09:36:22;97869.28;;;16.34;74.39
42847;BME280;28495;49.916;14.536;2022-10-17T09:41:52;97867.66;;;16.51;74.04
42847;BME280;28495;49.916;14.536;2022-10-17T09:52:41;97867.50;;;16.70;73.86
42847;BME280;28495;49.916;14.536;2022-10-17T09:58:08;97871.84;;;16.80;73.67
42847;BME280;28495;49.916;14.536;2022-10-17T10:03:29;97874.19;;;16.83;73.52
42847;BME280;28495;49.916;14.536;2022-10-17T10:08:51;97881.16;;;16.92;73.81
42847;BME280;28495;49.916;14.536;2022-10-17T10:14:20;97871.25;;;17.04;73.58
42847;BME280;28495;49.916;14.536;2022-10-17T10:19:48;97866.75;;;17.23;73.76
42847;BME280;28495;49.916;14.536;2022-10-17T10:25:16;97873.13;;;17.38;73.36
42847;BME280;28495;49.916;14.536;2022-10-17T10:30:37;97859.44;;;17.43;73.14
42847;BME280;28495;49.916;14.536;2022-10-17T10:36:02;97853.28;;;17.60;73.18
42847;BME280;28495;49.916;14.536;2022-10-17T10:41:23;97847.91;;;17.78;72.97
42847;BME280;28495;49.916;14.536;2022-10-17T10:46:47;97858.00;;;17.91;72.88
42847;BME280;28495;49.916;14.536;2022-10-17T10:52:17;97856.69;;;17.95;72.79
42847;BME280;28495;49.916;14.536;2022-10-17T10:57:40;97856.75;;;18.12;72.54
42847;BME280;28495;49.916;14.536;2022-10-17T11:15:13;97835.53;;;18.55;72.20
42847;BME280;28495;49.916;14.536;2022-10-17T11:20:57;97830.56;;;18.68;71.80
42847;BME280;28495;49.916;14.536;2022-10-17T11:26:26;97830.22;;;18.80;71.54
42847;BME280;28495;49.916;14.536;2022-10-17T11:31:51;97827.44;;;18.81;71.36
42847;BME280;28495;49.916;14.536;2022-10-17T11:37:18;97824.09;;;18.87;71.38
42847;BME280;28495;49.916;14.536;2022-10-17T11:42:54;97816.38;;;19.02;71.14
42847;BME280;28495;49.916;14.536;2022-10-17T11:48:22;97817.66;;;19.07;71.14
42847;BME280;28495;49.916;14.536;2022-10-17T11:54:18;97820.31;;;19.15;70.96
42847;BME280;28495;49.916;14.536;2022-10-17T12:11:51;97810.78;;;19.45;70.59
42847;BME280;28495;49.916;14.536;2022-10-17T12:17:31;97801.63;;;19.56;70.54
42847;BME280;28495;49.916;14.536;2022-10-17T12:33:59;97797.41;;;19.87;69.74
42847;BME280;28495;49.916;14.536;2022-10-17T12:44:43;97802.00;;;19.85;69.68
42847;BME280;28495;49.916;14.536;2022-10-17T12:50:59;97784.44;;;19.92;69.73
42847;BME280;28495;49.916;14.536;2022-10-17T12:56:46;97788.78;;;19.76;69.50
42847;BME280;28495;49.916;14.536;2022-10-17T13:02:26;97788.13;;;19.83;69.74
42847;BME280;28495;49.916;14.536;2022-10-17T13:07:48;97781.09;;;19.98;69.65
42847;BME280;28495;49.916;14.536;2022-10-17T13:13:18;97783.56;;;20.00;69.26
42847;BME280;28495;49.916;14.536;2022-10-17T13:18:39;97787.88;;;20.01;69.18
42847;BME280;28495;49.916;14.536;2022-10-17T13:24:00;97782.03;;;20.05;69.02
42847;BME280;28495;49.916;14.536;2022-10-17T13:29:23;97782.88;;;20.06;68.90
42847;BME280;28495;49.916;14.536;2022-10-17T13:34:45;97787.28;;;20.14;68.94
42847;BME280;28495;49.916;14.536;2022-10-17T13:40:06;97785.63;;;20.13;68.63
42847;BME280;28495;49.916;14.536;2022-10-17T13:45:56;97774.09;;;20.05;68.42
42847;BME280;28495;49.916;14.536;2022-10-17T13:51:50;97777.88;;;20.11;68.61
42847;BME280;28495;49.916;14.536;2022-10-17T13:57:28;97768.41;;;20.17;68.48
42847;BME280;28495;49.916;14.536;2022-10-17T14:02:50;97768.03;;;20.20;68.43
42847;BME280;28495;49.916;14.536;2022-10-17T14:08:13;97771.81;;;20.25;68.44
42847;BME280;28495;49.916;14.536;2022-10-17T14:13:47;97766.16;;;20.29;68.11
42847;BME280;28495;49.916;14.536;2022-10-17T14:24:46;97776.75;;;20.29;68.22
42847;BME280;28495;49.916;14.536;2022-10-17T14:30:30;97771.16;;;20.23;68.19
42847;BME280;28495;49.916;14.536;2022-10-17T14:36:13;97775.63;;;20.23;68.16
42847;BME280;28495;49.916;14.536;2022-10-17T14:41:35;97764.56;;;20.19;68.29
42847;BME280;28495;49.916;14.536;2022-10-17T14:47:04;97772.53;;;20.19;68.12
42847;BME280;28495;49.916;14.536;2022-10-17T14:53:00;97767.41;;;20.18;67.92
42847;BME280;28495;49.916;14.536;2022-10-17T14:58:25;97768.09;;;20.12;68.13
42847;BME280;28495;49.916;14.536;2022-10-17T15:03:47;97771.81;;;20.02;68.40
42847;BME280;28495;49.916;14.536;2022-10-17T15:09:09;97783.78;;;19.90;68.42
42847;BME280;28495;49.916;14.536;2022-10-17T15:14:30;97783.00;;;19.81;68.46
42847;BME280;28495;49.916;14.536;2022-10-17T15:19:51;97779.25;;;19.67;68.82
42847;BME280;28495;49.916;14.536;2022-10-17T15:25:13;97784.13;;;19.55;68.38
42847;BME280;28495;49.916;14.536;2022-10-17T15:30:35;97784.03;;;19.40;68.63
42847;BME280;28495;49.916;14.536;2022-10-17T15:35:56;97788.53;;;19.31;68.85
42847;BME280;28495;49.916;14.536;2022-10-17T15:41:18;97796.97;;;19.18;68.87
42847;BME280;28495;49.916;14.536;2022-10-17T15:46:40;97800.00;;;18.99;68.68
42847;BME280;28495;49.916;14.536;2022-10-17T15:52:02;97817.53;;;18.75;68.48
42847;BME280;28495;49.916;14.536;2022-10-17T15:57:27;97822.66;;;18.52;68.27
42847;BME280;28495;49.916;14.536;2022-10-17T16:02:49;97824.78;;;18.40;68.59
42847;BME280;28495;49.916;14.536;2022-10-17T16:08:10;97822.31;;;18.30;68.34
42847;BME280;28495;49.916;14.536;2022-10-17T16:13:31;97832.19;;;18.20;68.46
42847;BME280;28495;49.916;14.536;2022-10-17T16:18:52;97838.28;;;18.04;68.47
42847;BME280;28495;49.916;14.536;2022-10-17T16:24:13;97836.72;;;17.93;68.76
42847;BME280;28495;49.916;14.536;2022-10-17T16:29:34;97850.09;;;17.91;68.80
42847;BME280;28495;49.916;14.536;2022-10-17T16:34:54;97851.19;;;17.80;68.57
42847;BME280;28495;49.916;14.536;2022-10-17T16:40:15;97861.88;;;17.71;68.60
42847;BME280;28495;49.916;14.536;2022-10-17T16:45:36;97868.25;;;17.60;68.58
42847;BME280;28495;49.916;14.536;2022-10-17T16:50:57;97859.84;;;17.56;68.72
42847;BME280;28495;49.916;14.536;2022-10-17T16:56:20;97861.59;;;17.47;68.79
42847;BME280;28495;49.916;14.536;2022-10-17T17:01:41;97862.28;;;17.49;69.05
42847;BME280;28495;49.916;14.536;2022-10-17T17:07:01;97852.03;;;17.46;68.74
42847;BME280;28495;49.916;14.536;2022-10-17T17:12:22;97850.88;;;17.41;68.66
42847;BME280;28495;49.916;14.536;2022-10-17T17:17:43;97853.31;;;17.34;68.34
42847;BME280;28495;49.916;14.536;2022-10-17T17:23:13;97857.03;;;17.23;69.71
42847;BME280;28495;49.916;14.536;2022-10-17T17:28:35;97861.25;;;17.42;69.47
42847;BME280;28495;49.916;14.536;2022-10-17T17:33:57;97861.78;;;17.19;68.85
42847;BME280;28495;49.916;14.536;2022-10-17T17:39:18;97869.22;;;16.98;68.62
42847;BME280;28495;49.916;14.536;2022-10-17T17:44:39;97870.78;;;16.90;68.41
42847;BME280;28495;49.916;14.536;2022-10-17T17:49:59;97873.44;;;16.72;68.53
42847;BME280;28495;49.916;14.536;2022-10-17T17:55:22;97883.69;;;16.57;68.54
42847;BME280;28495;49.916;14.536;2022-10-17T18:00:43;97882.03;;;16.56;69.14
42847;BME280;28495;49.916;14.536;2022-10-17T18:06:05;97886.97;;;16.41;68.79
42847;BME280;28495;49.916;14.536;2022-10-17T18:11:27;97884.22;;;16.43;69.36
42847;BME280;28495;49.916;14.536;2022-10-17T18:16:48;97882.38;;;16.25;68.50
42847;BME280;28495;49.916;14.536;2022-10-17T18:22:09;97870.09;;;15.98;68.67
42847;BME280;28495;49.916;14.536;2022-10-17T18:27:30;97875.72;;;15.85;69.02
42847;BME280;28495;49.916;14.536;2022-10-17T18:32:52;97877.38;;;15.86;69.21
42847;BME280;28495;49.916;14.536;2022-10-17T18:38:13;97868.13;;;16.00;69.62
42847;BME280;28495;49.916;14.536;2022-10-17T18:43:35;97874.38;;;15.99;69.23
42847;BME280;28495;49.916;14.536;2022-10-17T18:48:57;97877.84;;;15.99;69.05
42847;BME280;28495;49.916;14.536;2022-10-17T18:54:19;97873.69;;;15.97;69.20
42847;BME280;28495;49.916;14.536;2022-10-17T18:59:40;97875.56;;;15.87;69.16
42847;BME280;28495;49.916;14.536;2022-10-17T19:05:02;97869.94;;;15.72;68.81
42847;BME280;28495;49.916;14.536;2022-10-17T19:10:23;97871.31;;;15.66;69.16
42847;BME280;28495;49.916;14.536;2022-10-17T19:15:45;97865.69;;;15.61;68.86
42847;BME280;28495;49.916;14.536;2022-10-17T19:21:08;97875.00;;;15.55;68.82
42847;BME280;28495;49.916;14.536;2022-10-17T19:26:32;97876.72;;;15.64;69.46
42847;BME280;28495;49.916;14.536;2022-10-17T19:31:54;97881.75;;;15.58;69.33
42847;BME280;28495;49.916;14.536;2022-10-17T19:37:15;97888.69;;;15.49;68.73
42847;BME280;28495;49.916;14.536;2022-10-17T19:42:35;97873.06;;;15.47;68.88
42847;BME280;28495;49.916;14.536;2022-10-17T19:47:56;97874.91;;;15.37;68.74
42847;BME280;28495;49.916;14.536;2022-10-17T19:53:17;97879.78;;;15.32;68.27
42847;BME280;28495;49.916;14.536;2022-10-17T19:58:38;97887.25;;;15.27;68.73
42847;BME280;28495;49.916;14.536;2022-10-17T20:04:07;97901.25;;;15.17;68.55
42847;BME280;28495;49.916;14.536;2022-10-17T20:09:28;97902.59;;;15.21;69.01
42847;BME280;28495;49.916;14.536;2022-10-17T20:14:49;97902.31;;;15.24;69.01
42847;BME280;28495;49.916;14.536;2022-10-17T20:20:09;97899.72;;;15.15;68.63
42847;BME280;28495;49.916;14.536;2022-10-17T20:25:30;97900.72;;;15.04;68.46
42847;BME280;28495;49.916;14.536;2022-10-17T20:30:56;97905.56;;;14.69;68.45
42847;BME280;28495;49.916;14.536;2022-10-17T20:36:17;97903.75;;;14.60;68.58
42847;BME280;28495;49.916;14.536;2022-10-17T20:41:44;97906.78;;;14.65;69.02
42847;BME280;28495;49.916;14.536;2022-10-17T20:47:05;97907.22;;;14.70;68.97
42847;BME280;28495;49.916;14.536;2022-10-17T20:52:45;97908.88;;;14.71;68.64
42847;BME280;28495;49.916;14.536;2022-10-17T20:58:09;97918.84;;;14.68;68.67
42847;BME280;28495;49.916;14.536;2022-10-17T21:03:33;97919.78;;;14.67;68.66
42847;BME280;28495;49.916;14.536;2022-10-17T21:08:55;97914.50;;;14.67;68.70
42847;BME280;28495;49.916;14.536;2022-10-17T21:14:18;97922.00;;;14.71;69.17
42847;BME280;28495;49.916;14.536;2022-10-17T21:19:40;97914.97;;;14.72;68.80
42847;BME280;28495;49.916;14.536;2022-10-17T21:25:01;97924.63;;;14.71;69.04
42847;BME280;28495;49.916;14.536;2022-10-17T21:30:22;97912.63;;;14.69;69.26
42847;BME280;28495;49.916;14.536;2022-10-17T21:35:43;97915.91;;;14.61;68.59
42847;BME280;28495;49.916;14.536;2022-10-17T21:41:05;97914.50;;;14.47;68.46
42847;BME280;28495;49.916;14.536;2022-10-17T21:46:27;97920.72;;;14.36;68.78
42847;BME280;28495;49.916;14.536;2022-10-17T21:51:49;97917.41;;;14.34;68.42
42847;BME280;28495;49.916;14.536;2022-10-17T21:57:10;97916.41;;;14.25;68.50
42847;BME280;28495;49.916;14.536;2022-10-17T22:02:31;97916.41;;;14.25;68.60
42847;BME280;28495;49.916;14.536;2022-10-17T22:07:52;97915.03;;;14.21;68.85
42847;BME280;28495;49.916;14.536;2022-10-17T22:13:12;97903.97;;;14.17;68.14
42847;BME280;28495;49.916;14.536;2022-10-17T22:18:34;97901.28;;;13.98;68.17
42847;BME280;28495;49.916;14.536;2022-10-17T22:24:06;97896.09;;;13.67;68.29
42847;BME280;28495;49.916;14.536;2022-10-17T22:29:27;97899.75;;;13.54;68.67
42847;BME280;28495;49.916;14.536;2022-10-17T22:34:48;97890.97;;;13.65;68.75
42847;BME280;28495;49.916;14.536;2022-10-17T22:40:09;97883.63;;;13.59;68.66
42847;BME280;28495;49.916;14.536;2022-10-17T22:45:30;97885.16;;;13.62;68.84
42847;BME280;28495;49.916;14.536;2022-10-17T22:50:52;97894.03;;;13.70;69.46
42847;BME280;28495;49.916;14.536;2022-10-17T22:56:18;97896.53;;;13.72;69.40
42847;BME280;28495;49.916;14.536;2022-10-17T23:01:40;97904.78;;;13.67;68.92
42847;BME280;28495;49.916;14.536;2022-10-17T23:07:01;97903.38;;;13.63;68.96
42847;BME280;28495;49.916;14.536;2022-10-17T23:12:21;97896.34;;;13.64;69.15
42847;BME280;28495;49.916;14.536;2022-10-17T23:17:42;97895.34;;;13.55;68.46
42847;BME280;28495;49.916;14.536;2022-10-17T23:23:03;97883.59;;;13.28;68.15
42847;BME280;28495;49.916;14.536;2022-10-17T23:28:24;97891.84;;;13.23;68.78
42847;BME280;28495;49.916;14.536;2022-10-17T23:33:46;97888.28;;;13.24;69.04
42847;BME280;28495;49.916;14.536;2022-10-17T23:39:07;97889.69;;;13.07;68.49
42847;BME280;28495;49.916;14.536;2022-10-17T23:44:28;97901.00;;;13.08;69.23
42847;BME280;28495;49.916;14.536;2022-10-17T23:49:49;97884.81;;;13.03;69.18
42847;BME280;28495;49.916;14.536;2022-10-17T23:55:10;97881.72;;;12.88;68.90
